sensor_id;sensor_type;location;lat;lon;timestamp;P1;durP1;ratioP1;P2;durP2;ratioP2
59514;SDS011;46082;43.034;-0.072;2022-08-01T00:02:05;3.22;;;1.30;;
59514;SDS011;46082;43.034;-0.072;2022-08-01T00:04:31;1.65;;;1.33;;
59514;SDS011;46082;43.034;-0.072;2022-08-01T00:06:57;1.95;;;1.40;;
59514;SDS011;46082;43.034;-0.072;2022-08-01T00:09:23;2.22;;;1.48;;
59514;SDS011;46082;43.034;-0.072;2022-08-01T00:11:50;1.30;;;1.20;;
59514;SDS011;46082;43.034;-0.072;2022-08-01T00:14:16;2.03;;;1.40;;
59514;SDS011;46082;43.034;-0.072;2022-08-01T00:16:42;1.30;;;1.30;;
59514;SDS011;46082;43.034;-0.072;2022-08-01T00:19:08;1.45;;;1.30;;
59514;SDS011;46082;43.034;-0.072;2022-08-01T00:21:34;1.70;;;1.40;;
59514;SDS011;46082;43.034;-0.072;2022-08-01T00:24:00;1.42;;;1.33;;
59514;SDS011;46082;43.034;-0.072;2022-08-01T00:26:26;6.53;;;1.30;;
59514;SDS011;46082;43.034;-0.072;2022-08-01T00:28:52;1.35;;;1.25;;
59514;SDS011;46082;43.034;-0.072;2022-08-01T00:31:19;3.35;;;1.58;;
59514;SDS011;46082;43.034;-0.072;2022-08-01T00:33:45;1.50;;;1.40;;
59514;SDS011;46082;43.034;-0.072;2022-08-01T00:36:11;3.42;;;1.60;;
59514;SDS011;46082;43.034;-0.072;2022-08-01T00:38:37;2.53;;;1.55;;
59514;SDS011;46082;43.034;-0.072;2022-08-01T00:41:03;3.35;;;1.60;;
59514;SDS011;46082;43.034;-0.072;2022-08-01T00:43:29;3.33;;;1.60;;
59514;SDS011;46082;43.034;-0.072;2022-08-01T00:45:55;2.75;;;1.55;;
59514;SDS011;46082;43.034;-0.072;2022-08-01T00:48:21;2.80;;;1.70;;
59514;SDS011;46082;43.034;-0.072;2022-08-01T00:50:48;1.83;;;1.70;;
59514;SDS011;46082;43.034;-0.072;2022-08-01T00:53:14;2.42;;;1.42;;
59514;SDS011;46082;43.034;-0.072;2022-08-01T00:55:40;1.90;;;1.63;;
59514;SDS011;46082;43.034;-0.072;2022-08-01T00:58:06;2.92;;;1.90;;
59514;SDS011;46082;43.034;-0.072;2022-08-01T01:00:34;2.50;;;1.50;;
59514;SDS011;46082;43.034;-0.072;2022-08-01T01:03:00;2.17;;;1.83;;
59514;SDS011;46082;43.034;-0.072;2022-08-01T01:05:27;1.58;;;1.48;;
59514;SDS011;46082;43.034;-0.072;2022-08-01T01:15:43;3.00;;;1.80;;
59514;SDS011;46082;43.034;-0.072;2022-08-01T01:20:46;1.73;;;1.63;;
59514;SDS011;46082;43.034;-0.072;2022-08-01T01:23:20;2.15;;;1.58;;
59514;SDS011;46082;43.034;-0.072;2022-08-01T01:30:46;2.60;;;1.63;;
59514;SDS011;46082;43.034;-0.072;2022-08-01T01:33:14;4.22;;;1.50;;
59514;SDS011;46082;43.034;-0.072;2022-08-01T01:35:48;3.45;;;1.83;;
59514;SDS011;46082;43.034;-0.072;2022-08-01T01:40:42;4.35;;;1.40;;
59514;SDS011;46082;43.034;-0.072;2022-08-01T01:43:09;2.25;;;1.80;;
59514;SDS011;46082;43.034;-0.072;2022-08-01T01:45:35;3.42;;;1.70;;
59514;SDS011;46082;43.034;-0.072;2022-08-01T01:48:02;1.63;;;1.52;;
59514;SDS011;46082;43.034;-0.072;2022-08-01T01:50:29;1.40;;;1.30;;
59514;SDS011;46082;43.034;-0.072;2022-08-01T01:52:55;2.00;;;1.35;;
59514;SDS011;46082;43.034;-0.072;2022-08-01T01:55:22;1.67;;;1.58;;
59514;SDS011;46082;43.034;-0.072;2022-08-01T01:57:49;2.50;;;1.77;;
59514;SDS011;46082;43.034;-0.072;2022-08-01T02:00:17;2.35;;;1.80;;
59514;SDS011;46082;43.034;-0.072;2022-08-01T02:02:43;4.10;;;1.60;;
59514;SDS011;46082;43.034;-0.072;2022-08-01T02:05:10;1.83;;;1.73;;
59514;SDS011;46082;43.034;-0.072;2022-08-01T02:07:37;2.65;;;1.80;;
59514;SDS011;46082;43.034;-0.072;2022-08-01T02:10:05;4.43;;;1.73;;
59514;SDS011;46082;43.034;-0.072;2022-08-01T02:12:35;3.92;;;1.52;;
59514;SDS011;46082;43.034;-0.072;2022-08-01T02:15:02;2.40;;;1.60;;
59514;SDS011;46082;43.034;-0.072;2022-08-01T02:17:29;1.65;;;1.25;;
59514;SDS011;46082;43.034;-0.072;2022-08-01T02:19:56;5.07;;;1.92;;
59514;SDS011;46082;43.034;-0.072;2022-08-01T02:22:27;2.15;;;1.50;;
59514;SDS011;46082;43.034;-0.072;2022-08-01T02:25:02;1.63;;;1.52;;
59514;SDS011;46082;43.034;-0.072;2022-08-01T02:27:54;1.77;;;1.63;;
59514;SDS011;46082;43.034;-0.072;2022-08-01T02:30:15;1.63;;;1.45;;
59514;SDS011;46082;43.034;-0.072;2022-08-01T02:32:53;1.80;;;1.70;;
59514;SDS011;46082;43.034;-0.072;2022-08-01T02:35:25;1.40;;;1.30;;
59514;SDS011;46082;43.034;-0.072;2022-08-01T02:37:52;1.90;;;1.80;;
59514;SDS011;46082;43.034;-0.072;2022-08-01T02:40:19;2.10;;;1.50;;
59514;SDS011;46082;43.034;-0.072;2022-08-01T02:42:47;2.60;;;1.52;;
59514;SDS011;46082;43.034;-0.072;2022-08-01T02:45:15;1.40;;;1.30;;
59514;SDS011;46082;43.034;-0.072;2022-08-01T02:47:43;2.25;;;1.50;;
59514;SDS011;46082;43.034;-0.072;2022-08-01T02:50:10;1.73;;;1.63;;
59514;SDS011;46082;43.034;-0.072;2022-08-01T02:52:38;1.90;;;1.73;;
59514;SDS011;46082;43.034;-0.072;2022-08-01T02:55:05;1.40;;;1.30;;
59514;SDS011;46082;43.034;-0.072;2022-08-01T02:57:33;1.40;;;1.30;;
59514;SDS011;46082;43.034;-0.072;2022-08-01T02:59:59;2.25;;;1.50;;
59514;SDS011;46082;43.034;-0.072;2022-08-01T03:02:26;1.70;;;1.60;;
59514;SDS011;46082;43.034;-0.072;2022-08-01T03:04:54;1.65;;;1.48;;
59514;SDS011;46082;43.034;-0.072;2022-08-01T03:07:21;1.70;;;1.60;;
59514;SDS011;46082;43.034;-0.072;2022-08-01T03:09:49;2.13;;;1.38;;
59514;SDS011;46082;43.034;-0.072;2022-08-01T03:12:16;2.15;;;1.73;;
59514;SDS011;46082;43.034;-0.072;2022-08-01T03:14:44;1.63;;;1.50;;
59514;SDS011;46082;43.034;-0.072;2022-08-01T03:17:10;2.05;;;1.70;;
59514;SDS011;46082;43.034;-0.072;2022-08-01T03:19:38;3.15;;;1.70;;
59514;SDS011;46082;43.034;-0.072;2022-08-01T03:22:08;1.80;;;1.70;;
59514;SDS011;46082;43.034;-0.072;2022-08-01T03:24:35;1.75;;;1.50;;
59514;SDS011;46082;43.034;-0.072;2022-08-01T03:27:02;1.45;;;1.35;;
59514;SDS011;46082;43.034;-0.072;2022-08-01T03:29:28;1.63;;;1.52;;
59514;SDS011;46082;43.034;-0.072;2022-08-01T03:31:55;1.80;;;1.70;;
59514;SDS011;46082;43.034;-0.072;2022-08-01T03:34:22;1.88;;;1.65;;
59514;SDS011;46082;43.034;-0.072;2022-08-01T03:37:00;2.65;;;1.38;;
59514;SDS011;46082;43.034;-0.072;2022-08-01T03:39:29;1.92;;;1.73;;
59514;SDS011;46082;43.034;-0.072;2022-08-01T03:41:58;1.95;;;1.75;;
59514;SDS011;46082;43.034;-0.072;2022-08-01T03:44:28;2.63;;;1.40;;
59514;SDS011;46082;43.034;-0.072;2022-08-01T03:46:58;1.80;;;1.70;;
59514;SDS011;46082;43.034;-0.072;2022-08-01T03:49:25;2.53;;;1.77;;
59514;SDS011;46082;43.034;-0.072;2022-08-01T03:51:54;2.10;;;1.55;;
59514;SDS011;46082;43.034;-0.072;2022-08-01T03:54:21;1.73;;;1.45;;
59514;SDS011;46082;43.034;-0.072;2022-08-01T03:56:49;2.13;;;1.58;;
59514;SDS011;46082;43.034;-0.072;2022-08-01T03:59:16;1.70;;;1.60;;
59514;SDS011;46082;43.034;-0.072;2022-08-01T04:01:43;1.98;;;1.77;;
59514;SDS011;46082;43.034;-0.072;2022-08-01T04:04:10;1.45;;;1.33;;
59514;SDS011;46082;43.034;-0.072;2022-08-01T04:06:39;1.92;;;1.73;;
59514;SDS011;46082;43.034;-0.072;2022-08-01T04:09:09;2.83;;;2.00;;
59514;SDS011;46082;43.034;-0.072;2022-08-01T04:11:36;4.75;;;1.73;;
59514;SDS011;46082;43.034;-0.072;2022-08-01T04:14:02;1.92;;;1.75;;
59514;SDS011;46082;43.034;-0.072;2022-08-01T04:16:29;2.33;;;2.13;;
59514;SDS011;46082;43.034;-0.072;2022-08-01T04:18:55;3.60;;;1.60;;
59514;SDS011;46082;43.034;-0.072;2022-08-01T04:21:23;2.28;;;2.10;;
59514;SDS011;46082;43.034;-0.072;2022-08-01T04:23:52;2.10;;;1.90;;
59514;SDS011;46082;43.034;-0.072;2022-08-01T04:26:19;2.22;;;2.03;;
59514;SDS011;46082;43.034;-0.072;2022-08-01T04:28:47;1.35;;;1.25;;
59514;SDS011;46082;43.034;-0.072;2022-08-01T04:31:15;1.92;;;1.83;;
59514;SDS011;46082;43.034;-0.072;2022-08-01T04:33:43;2.17;;;1.75;;
59514;SDS011;46082;43.034;-0.072;2022-08-01T04:36:10;1.63;;;1.52;;
59514;SDS011;46082;43.034;-0.072;2022-08-01T04:38:38;2.95;;;1.65;;
59514;SDS011;46082;43.034;-0.072;2022-08-01T04:41:06;3.25;;;1.80;;
59514;SDS011;46082;43.034;-0.072;2022-08-01T04:43:32;1.92;;;1.50;;
59514;SDS011;46082;43.034;-0.072;2022-08-01T04:45:59;2.00;;;1.55;;
59514;SDS011;46082;43.034;-0.072;2022-08-01T04:48:28;1.30;;;1.20;;
59514;SDS011;46082;43.034;-0.072;2022-08-01T04:50:55;1.58;;;1.30;;
59514;SDS011;46082;43.034;-0.072;2022-08-01T04:53:21;2.08;;;1.48;;
59514;SDS011;46082;43.034;-0.072;2022-08-01T04:55:47;1.48;;;1.38;;
59514;SDS011;46082;43.034;-0.072;2022-08-01T04:58:16;2.20;;;1.40;;
59514;SDS011;46082;43.034;-0.072;2022-08-01T05:00:43;4.43;;;1.77;;
59514;SDS011;46082;43.034;-0.072;2022-08-01T05:03:09;1.58;;;1.48;;
59514;SDS011;46082;43.034;-0.072;2022-08-01T05:05:35;1.88;;;1.30;;
59514;SDS011;46082;43.034;-0.072;2022-08-01T05:08:01;2.00;;;1.80;;
59514;SDS011;46082;43.034;-0.072;2022-08-01T05:10:27;1.88;;;1.77;;
59514;SDS011;46082;43.034;-0.072;2022-08-01T05:12:54;1.25;;;1.10;;
59514;SDS011;46082;43.034;-0.072;2022-08-01T05:15:20;7.63;;;1.65;;
59514;SDS011;46082;43.034;-0.072;2022-08-01T05:17:46;1.77;;;1.67;;
59514;SDS011;46082;43.034;-0.072;2022-08-01T05:20:13;1.67;;;1.52;;
59514;SDS011;46082;43.034;-0.072;2022-08-01T05:22:39;2.10;;;1.70;;
59514;SDS011;46082;43.034;-0.072;2022-08-01T05:25:06;2.15;;;1.75;;
59514;SDS011;46082;43.034;-0.072;2022-08-01T05:27:32;3.03;;;2.30;;
59514;SDS011;46082;43.034;-0.072;2022-08-01T05:30:04;2.50;;;2.03;;
59514;SDS011;46082;43.034;-0.072;2022-08-01T05:32:30;2.17;;;1.98;;
59514;SDS011;46082;43.034;-0.072;2022-08-01T05:34:56;3.15;;;2.05;;
59514;SDS011;46082;43.034;-0.072;2022-08-01T05:37:23;1.75;;;1.65;;
59514;SDS011;46082;43.034;-0.072;2022-08-01T05:39:49;2.83;;;2.10;;
59514;SDS011;46082;43.034;-0.072;2022-08-01T05:42:15;1.90;;;1.70;;
59514;SDS011;46082;43.034;-0.072;2022-08-01T05:44:41;3.63;;;2.15;;
59514;SDS011;46082;43.034;-0.072;2022-08-01T05:47:07;2.20;;;1.52;;
59514;SDS011;46082;43.034;-0.072;2022-08-01T05:49:33;5.30;;;1.95;;
59514;SDS011;46082;43.034;-0.072;2022-08-01T05:51:59;2.25;;;2.05;;
59514;SDS011;46082;43.034;-0.072;2022-08-01T05:54:26;2.65;;;2.17;;
59514;SDS011;46082;43.034;-0.072;2022-08-01T05:56:53;6.20;;;2.47;;
59514;SDS011;46082;43.034;-0.072;2022-08-01T05:59:24;3.38;;;2.17;;
59514;SDS011;46082;43.034;-0.072;2022-08-01T06:01:50;3.30;;;1.95;;
59514;SDS011;46082;43.034;-0.072;2022-08-01T06:04:16;2.83;;;2.50;;
59514;SDS011;46082;43.034;-0.072;2022-08-01T06:06:42;4.97;;;2.03;;
59514;SDS011;46082;43.034;-0.072;2022-08-01T06:09:08;3.97;;;2.03;;
59514;SDS011;46082;43.034;-0.072;2022-08-01T06:11:34;5.53;;;2.70;;
59514;SDS011;46082;43.034;-0.072;2022-08-01T06:14:01;2.70;;;2.50;;
59514;SDS011;46082;43.034;-0.072;2022-08-01T06:16:27;3.38;;;2.20;;
59514;SDS011;46082;43.034;-0.072;2022-08-01T06:18:53;2.47;;;2.30;;
59514;SDS011;46082;43.034;-0.072;2022-08-01T06:21:19;4.45;;;2.30;;
59514;SDS011;46082;43.034;-0.072;2022-08-01T06:23:45;3.78;;;2.10;;
59514;SDS011;46082;43.034;-0.072;2022-08-01T06:26:11;4.93;;;2.63;;
59514;SDS011;46082;43.034;-0.072;2022-08-01T06:28:38;2.67;;;2.47;;
59514;SDS011;46082;43.034;-0.072;2022-08-01T06:31:04;3.30;;;2.45;;
59514;SDS011;46082;43.034;-0.072;2022-08-01T06:33:30;2.65;;;2.28;;
59514;SDS011;46082;43.034;-0.072;2022-08-01T06:35:56;3.03;;;2.45;;
59514;SDS011;46082;43.034;-0.072;2022-08-01T06:38:22;3.78;;;2.40;;
59514;SDS011;46082;43.034;-0.072;2022-08-01T06:40:49;2.47;;;2.22;;
59514;SDS011;46082;43.034;-0.072;2022-08-01T06:43:15;2.83;;;2.17;;
59514;SDS011;46082;43.034;-0.072;2022-08-01T06:45:43;3.63;;;2.80;;
59514;SDS011;46082;43.034;-0.072;2022-08-01T06:48:09;3.00;;;2.25;;
59514;SDS011;46082;43.034;-0.072;2022-08-01T06:50:35;2.30;;;2.10;;
59514;SDS011;46082;43.034;-0.072;2022-08-01T06:53:02;2.00;;;1.83;;
59514;SDS011;46082;43.034;-0.072;2022-08-01T06:55:28;2.35;;;1.95;;
59514;SDS011;46082;43.034;-0.072;2022-08-01T06:57:54;2.50;;;2.22;;
59514;SDS011;46082;43.034;-0.072;2022-08-01T07:00:21;2.40;;;1.85;;
59514;SDS011;46082;43.034;-0.072;2022-08-01T07:02:48;3.45;;;2.13;;
59514;SDS011;46082;43.034;-0.072;2022-08-01T07:05:14;2.30;;;2.10;;
59514;SDS011;46082;43.034;-0.072;2022-08-01T07:07:40;2.13;;;1.90;;
59514;SDS011;46082;43.034;-0.072;2022-08-01T07:10:06;1.90;;;1.80;;
59514;SDS011;46082;43.034;-0.072;2022-08-01T07:12:33;2.10;;;1.90;;
59514;SDS011;46082;43.034;-0.072;2022-08-01T07:15:02;2.85;;;1.90;;
59514;SDS011;46082;43.034;-0.072;2022-08-01T07:17:28;3.15;;;1.88;;
59514;SDS011;46082;43.034;-0.072;2022-08-01T07:19:54;2.67;;;1.92;;
59514;SDS011;46082;43.034;-0.072;2022-08-01T07:22:20;2.75;;;1.80;;
59514;SDS011;46082;43.034;-0.072;2022-08-01T07:24:47;2.03;;;1.50;;
59514;SDS011;46082;43.034;-0.072;2022-08-01T07:27:13;2.08;;;1.70;;
59514;SDS011;46082;43.034;-0.072;2022-08-01T07:29:39;2.42;;;1.90;;
59514;SDS011;46082;43.034;-0.072;2022-08-01T07:32:05;3.53;;;1.50;;
59514;SDS011;46082;43.034;-0.072;2022-08-01T07:34:31;2.75;;;1.50;;
59514;SDS011;46082;43.034;-0.072;2022-08-01T07:36:57;1.90;;;1.70;;
59514;SDS011;46082;43.034;-0.072;2022-08-01T07:39:23;1.90;;;1.80;;
59514;SDS011;46082;43.034;-0.072;2022-08-01T07:41:50;1.60;;;1.50;;
59514;SDS011;46082;43.034;-0.072;2022-08-01T07:44:16;1.75;;;1.65;;
59514;SDS011;46082;43.034;-0.072;2022-08-01T07:46:42;2.05;;;1.48;;
59514;SDS011;46082;43.034;-0.072;2022-08-01T07:49:08;2.08;;;1.65;;
59514;SDS011;46082;43.034;-0.072;2022-08-01T07:51:34;4.80;;;2.78;;
59514;SDS011;46082;43.034;-0.072;2022-08-01T07:54:00;1.77;;;1.67;;
59514;SDS011;46082;43.034;-0.072;2022-08-01T07:56:26;1.95;;;1.70;;
59514;SDS011;46082;43.034;-0.072;2022-08-01T07:58:52;1.58;;;1.48;;
59514;SDS011;46082;43.034;-0.072;2022-08-01T08:01:18;1.95;;;1.85;;
59514;SDS011;46082;43.034;-0.072;2022-08-01T08:03:45;1.90;;;1.80;;
59514;SDS011;46082;43.034;-0.072;2022-08-01T08:06:11;2.75;;;1.95;;
59514;SDS011;46082;43.034;-0.072;2022-08-01T08:08:37;3.53;;;1.98;;
59514;SDS011;46082;43.034;-0.072;2022-08-01T08:11:03;1.80;;;1.70;;
59514;SDS011;46082;43.034;-0.072;2022-08-01T08:13:29;2.60;;;1.95;;
59514;SDS011;46082;43.034;-0.072;2022-08-01T08:15:55;2.83;;;1.90;;
59514;SDS011;46082;43.034;-0.072;2022-08-01T08:18:23;1.73;;;1.63;;
59514;SDS011;46082;43.034;-0.072;2022-08-01T08:20:49;2.75;;;2.00;;
59514;SDS011;46082;43.034;-0.072;2022-08-01T08:23:15;3.55;;;1.98;;
59514;SDS011;46082;43.034;-0.072;2022-08-01T08:26:00;3.38;;;2.10;;
59514;SDS011;46082;43.034;-0.072;2022-08-01T08:28:26;2.42;;;2.05;;
59514;SDS011;46082;43.034;-0.072;2022-08-01T08:30:53;2.60;;;2.40;;
59514;SDS011;46082;43.034;-0.072;2022-08-01T08:33:20;3.40;;;2.08;;
59514;SDS011;46082;43.034;-0.072;2022-08-01T08:35:46;3.53;;;2.50;;
59514;SDS011;46082;43.034;-0.072;2022-08-01T08:38:12;2.60;;;2.15;;
59514;SDS011;46082;43.034;-0.072;2022-08-01T08:40:38;2.40;;;1.83;;
59514;SDS011;46082;43.034;-0.072;2022-08-01T08:43:04;4.45;;;2.45;;
59514;SDS011;46082;43.034;-0.072;2022-08-01T08:45:31;2.47;;;2.03;;
59514;SDS011;46082;43.034;-0.072;2022-08-01T08:47:57;1.80;;;1.70;;
59514;SDS011;46082;43.034;-0.072;2022-08-01T08:50:27;2.28;;;2.10;;
59514;SDS011;46082;43.034;-0.072;2022-08-01T08:52:54;4.47;;;2.50;;
59514;SDS011;46082;43.034;-0.072;2022-08-01T08:55:21;2.42;;;2.22;;
59514;SDS011;46082;43.034;-0.072;2022-08-01T08:57:49;3.13;;;2.45;;
59514;SDS011;46082;43.034;-0.072;2022-08-01T09:00:16;4.68;;;2.85;;
59514;SDS011;46082;43.034;-0.072;2022-08-01T09:02:43;3.40;;;2.90;;
59514;SDS011;46082;43.034;-0.072;2022-08-01T09:05:09;2.90;;;2.35;;
59514;SDS011;46082;43.034;-0.072;2022-08-01T09:07:35;2.45;;;2.25;;
59514;SDS011;46082;43.034;-0.072;2022-08-01T09:10:02;3.42;;;2.55;;
59514;SDS011;46082;43.034;-0.072;2022-08-01T09:12:28;4.72;;;2.67;;
59514;SDS011;46082;43.034;-0.072;2022-08-01T09:14:54;3.92;;;2.42;;
59514;SDS011;46082;43.034;-0.072;2022-08-01T09:17:20;3.10;;;2.20;;
59514;SDS011;46082;43.034;-0.072;2022-08-01T09:19:54;6.50;;;2.38;;
59514;SDS011;46082;43.034;-0.072;2022-08-01T09:22:21;3.00;;;2.70;;
59514;SDS011;46082;43.034;-0.072;2022-08-01T09:25:02;3.20;;;2.45;;
59514;SDS011;46082;43.034;-0.072;2022-08-01T09:27:28;3.33;;;2.97;;
59514;SDS011;46082;43.034;-0.072;2022-08-01T09:29:55;1.98;;;1.83;;
59514;SDS011;46082;43.034;-0.072;2022-08-01T09:32:32;3.33;;;3.03;;
59514;SDS011;46082;43.034;-0.072;2022-08-01T09:35:00;2.38;;;2.17;;
59514;SDS011;46082;43.034;-0.072;2022-08-01T09:37:44;2.92;;;2.60;;
59514;SDS011;46082;43.034;-0.072;2022-08-01T09:40:10;2.53;;;2.08;;
59514;SDS011;46082;43.034;-0.072;2022-08-01T09:42:36;3.08;;;2.50;;
59514;SDS011;46082;43.034;-0.072;2022-08-01T09:45:03;5.78;;;2.80;;
59514;SDS011;46082;43.034;-0.072;2022-08-01T09:47:38;2.40;;;1.95;;
59514;SDS011;46082;43.034;-0.072;2022-08-01T09:50:05;5.13;;;3.30;;
59514;SDS011;46082;43.034;-0.072;2022-08-01T09:52:32;8.00;;;2.60;;
59514;SDS011;46082;43.034;-0.072;2022-08-01T09:54:59;2.78;;;2.53;;
59514;SDS011;46082;43.034;-0.072;2022-08-01T09:57:26;2.97;;;2.70;;
59514;SDS011;46082;43.034;-0.072;2022-08-01T09:59:53;2.88;;;2.63;;
59514;SDS011;46082;43.034;-0.072;2022-08-01T10:02:53;6.28;;;2.83;;
59514;SDS011;46082;43.034;-0.072;2022-08-01T10:05:12;2.45;;;2.25;;
59514;SDS011;46082;43.034;-0.072;2022-08-01T10:10:23;3.47;;;2.65;;
59514;SDS011;46082;43.034;-0.072;2022-08-01T10:12:49;2.67;;;2.47;;
59514;SDS011;46082;43.034;-0.072;2022-08-01T10:15:17;4.13;;;2.60;;
59514;SDS011;46082;43.034;-0.072;2022-08-01T10:17:59;3.20;;;2.92;;
59514;SDS011;46082;43.034;-0.072;2022-08-01T10:20:30;2.67;;;2.47;;
59514;SDS011;46082;43.034;-0.072;2022-08-01T10:23:03;3.10;;;2.80;;
59514;SDS011;46082;43.034;-0.072;2022-08-01T10:25:33;3.00;;;2.70;;
59514;SDS011;46082;43.034;-0.072;2022-08-01T10:28:00;3.80;;;2.47;;
59514;SDS011;46082;43.034;-0.072;2022-08-01T10:30:27;3.03;;;2.78;;
59514;SDS011;46082;43.034;-0.072;2022-08-01T10:32:53;4.32;;;2.30;;
59514;SDS011;46082;43.034;-0.072;2022-08-01T10:35:20;3.15;;;2.58;;
59514;SDS011;46082;43.034;-0.072;2022-08-01T10:37:47;3.88;;;2.80;;
59514;SDS011;46082;43.034;-0.072;2022-08-01T10:40:15;2.80;;;2.45;;
59514;SDS011;46082;43.034;-0.072;2022-08-01T10:42:42;5.78;;;3.40;;
59514;SDS011;46082;43.034;-0.072;2022-08-01T10:45:12;2.85;;;2.63;;
59514;SDS011;46082;43.034;-0.072;2022-08-01T10:50:19;2.70;;;2.50;;
59514;SDS011;46082;43.034;-0.072;2022-08-01T10:53:06;2.65;;;2.38;;
59514;SDS011;46082;43.034;-0.072;2022-08-01T10:58:24;3.33;;;3.00;;
59514;SDS011;46082;43.034;-0.072;2022-08-01T11:03:35;6.00;;;2.28;;
59514;SDS011;46082;43.034;-0.072;2022-08-01T11:06:02;5.95;;;2.58;;
59514;SDS011;46082;43.034;-0.072;2022-08-01T11:08:29;2.67;;;2.40;;
59514;SDS011;46082;43.034;-0.072;2022-08-01T11:11:00;2.53;;;2.33;;
59514;SDS011;46082;43.034;-0.072;2022-08-01T11:14:26;6.72;;;2.65;;
59514;SDS011;46082;43.034;-0.072;2022-08-01T11:16:25;2.40;;;2.17;;
59514;SDS011;46082;43.034;-0.072;2022-08-01T11:18:51;3.15;;;2.53;;
59514;SDS011;46082;43.034;-0.072;2022-08-01T11:21:17;2.83;;;2.47;;
59514;SDS011;46082;43.034;-0.072;2022-08-01T11:23:48;6.07;;;2.58;;
59514;SDS011;46082;43.034;-0.072;2022-08-01T11:26:15;4.60;;;2.75;;
59514;SDS011;46082;43.034;-0.072;2022-08-01T11:28:42;2.95;;;2.63;;
59514;SDS011;46082;43.034;-0.072;2022-08-01T11:38:39;2.42;;;2.20;;
59514;SDS011;46082;43.034;-0.072;2022-08-01T11:44:02;2.45;;;2.25;;
59514;SDS011;46082;43.034;-0.072;2022-08-01T11:49:24;2.72;;;2.15;;
59514;SDS011;46082;43.034;-0.072;2022-08-01T11:54:30;2.55;;;2.08;;
59514;SDS011;46082;43.034;-0.072;2022-08-01T11:57:00;2.63;;;2.42;;
59514;SDS011;46082;43.034;-0.072;2022-08-01T11:59:26;3.15;;;2.50;;
59514;SDS011;46082;43.034;-0.072;2022-08-01T12:01:53;2.70;;;2.28;;
59514;SDS011;46082;43.034;-0.072;2022-08-01T12:04:19;2.45;;;2.25;;
59514;SDS011;46082;43.034;-0.072;2022-08-01T12:06:45;2.60;;;2.40;;
59514;SDS011;46082;43.034;-0.072;2022-08-01T12:09:29;2.42;;;2.15;;
59514;SDS011;46082;43.034;-0.072;2022-08-01T12:11:55;3.15;;;2.85;;
59514;SDS011;46082;43.034;-0.072;2022-08-01T12:14:22;2.63;;;2.35;;
59514;SDS011;46082;43.034;-0.072;2022-08-01T12:16:50;2.50;;;2.30;;
59514;SDS011;46082;43.034;-0.072;2022-08-01T12:19:21;2.42;;;2.22;;
59514;SDS011;46082;43.034;-0.072;2022-08-01T12:24:33;2.67;;;2.47;;
59514;SDS011;46082;43.034;-0.072;2022-08-01T12:27:00;6.35;;;2.88;;
59514;SDS011;46082;43.034;-0.072;2022-08-01T12:29:33;4.15;;;2.10;;
59514;SDS011;46082;43.034;-0.072;2022-08-01T12:31:59;2.92;;;2.53;;
59514;SDS011;46082;43.034;-0.072;2022-08-01T12:34:27;3.15;;;2.30;;
59514;SDS011;46082;43.034;-0.072;2022-08-01T12:36:57;2.72;;;2.42;;
59514;SDS011;46082;43.034;-0.072;2022-08-01T12:39:34;3.90;;;2.78;;
59514;SDS011;46082;43.034;-0.072;2022-08-01T12:42:00;2.65;;;2.45;;
59514;SDS011;46082;43.034;-0.072;2022-08-01T12:44:27;2.47;;;2.28;;
59514;SDS011;46082;43.034;-0.072;2022-08-01T12:46:54;3.05;;;2.25;;
59514;SDS011;46082;43.034;-0.072;2022-08-01T12:49:20;2.90;;;2.55;;
59514;SDS011;46082;43.034;-0.072;2022-08-01T12:51:46;3.03;;;2.53;;
59514;SDS011;46082;43.034;-0.072;2022-08-01T12:54:12;2.08;;;1.98;;
59514;SDS011;46082;43.034;-0.072;2022-08-01T12:56:39;2.60;;;2.40;;
59514;SDS011;46082;43.034;-0.072;2022-08-01T12:59:21;4.03;;;3.10;;
59514;SDS011;46082;43.034;-0.072;2022-08-01T13:01:50;2.42;;;2.22;;
59514;SDS011;46082;43.034;-0.072;2022-08-01T13:04:16;2.72;;;2.42;;
59514;SDS011;46082;43.034;-0.072;2022-08-01T13:06:42;3.45;;;2.65;;
59514;SDS011;46082;43.034;-0.072;2022-08-01T13:09:09;5.25;;;2.35;;
59514;SDS011;46082;43.034;-0.072;2022-08-01T13:11:36;3.67;;;2.78;;
59514;SDS011;46082;43.034;-0.072;2022-08-01T13:14:02;2.90;;;2.47;;
59514;SDS011;46082;43.034;-0.072;2022-08-01T13:16:29;2.63;;;2.42;;
59514;SDS011;46082;43.034;-0.072;2022-08-01T13:18:55;2.40;;;2.20;;
59514;SDS011;46082;43.034;-0.072;2022-08-01T13:21:26;2.97;;;2.78;;
59514;SDS011;46082;43.034;-0.072;2022-08-01T13:24:05;2.63;;;2.40;;
59514;SDS011;46082;43.034;-0.072;2022-08-01T13:26:46;2.47;;;2.20;;
59514;SDS011;46082;43.034;-0.072;2022-08-01T13:29:13;8.48;;;2.33;;
59514;SDS011;46082;43.034;-0.072;2022-08-01T13:31:39;4.07;;;2.22;;
59514;SDS011;46082;43.034;-0.072;2022-08-01T13:34:06;3.47;;;2.42;;
59514;SDS011;46082;43.034;-0.072;2022-08-01T13:36:32;2.53;;;2.33;;
59514;SDS011;46082;43.034;-0.072;2022-08-01T13:38:59;2.70;;;2.50;;
59514;SDS011;46082;43.034;-0.072;2022-08-01T13:41:44;2.95;;;2.33;;
59514;SDS011;46082;43.034;-0.072;2022-08-01T13:44:10;2.88;;;2.67;;
59514;SDS011;46082;43.034;-0.072;2022-08-01T13:46:36;6.90;;;2.17;;
59514;SDS011;46082;43.034;-0.072;2022-08-01T13:49:03;3.42;;;2.55;;
59514;SDS011;46082;43.034;-0.072;2022-08-01T13:51:29;2.65;;;2.45;;
59514;SDS011;46082;43.034;-0.072;2022-08-01T13:53:55;2.65;;;2.38;;
59514;SDS011;46082;43.034;-0.072;2022-08-01T13:56:22;3.63;;;2.67;;
59514;SDS011;46082;43.034;-0.072;2022-08-01T13:58:48;4.10;;;2.67;;
59514;SDS011;46082;43.034;-0.072;2022-08-01T14:01:14;3.63;;;2.40;;
59514;SDS011;46082;43.034;-0.072;2022-08-01T14:03:40;6.20;;;2.40;;
59514;SDS011;46082;43.034;-0.072;2022-08-01T14:06:06;4.25;;;2.13;;
59514;SDS011;46082;43.034;-0.072;2022-08-01T14:08:33;3.45;;;2.30;;
59514;SDS011;46082;43.034;-0.072;2022-08-01T14:10:59;2.58;;;2.38;;
59514;SDS011;46082;43.034;-0.072;2022-08-01T14:13:25;7.53;;;2.97;;
59514;SDS011;46082;43.034;-0.072;2022-08-01T14:15:52;5.45;;;2.78;;
59514;SDS011;46082;43.034;-0.072;2022-08-01T14:18:18;3.17;;;2.30;;
59514;SDS011;46082;43.034;-0.072;2022-08-01T14:20:44;3.25;;;2.60;;
59514;SDS011;46082;43.034;-0.072;2022-08-01T14:23:10;3.75;;;2.88;;
59514;SDS011;46082;43.034;-0.072;2022-08-01T14:25:37;3.42;;;2.88;;
59514;SDS011;46082;43.034;-0.072;2022-08-01T14:28:03;3.55;;;2.70;;
59514;SDS011;46082;43.034;-0.072;2022-08-01T14:30:31;3.33;;;2.60;;
59514;SDS011;46082;43.034;-0.072;2022-08-01T14:32:57;2.85;;;2.65;;
59514;SDS011;46082;43.034;-0.072;2022-08-01T14:35:23;3.65;;;2.60;;
59514;SDS011;46082;43.034;-0.072;2022-08-01T14:37:50;3.28;;;2.97;;
59514;SDS011;46082;43.034;-0.072;2022-08-01T14:40:16;2.88;;;2.58;;
59514;SDS011;46082;43.034;-0.072;2022-08-01T14:42:42;4.93;;;2.97;;
59514;SDS011;46082;43.034;-0.072;2022-08-01T14:45:12;2.83;;;2.20;;
59514;SDS011;46082;43.034;-0.072;2022-08-01T14:47:39;4.50;;;2.67;;
59514;SDS011;46082;43.034;-0.072;2022-08-01T14:50:06;2.90;;;2.70;;
59514;SDS011;46082;43.034;-0.072;2022-08-01T14:52:33;2.55;;;2.35;;
59514;SDS011;46082;43.034;-0.072;2022-08-01T14:54:59;2.35;;;2.15;;
59514;SDS011;46082;43.034;-0.072;2022-08-01T14:57:25;3.65;;;2.92;;
59514;SDS011;46082;43.034;-0.072;2022-08-01T14:59:51;2.92;;;2.70;;
59514;SDS011;46082;43.034;-0.072;2022-08-01T15:02:17;2.60;;;2.40;;
59514;SDS011;46082;43.034;-0.072;2022-08-01T15:04:47;3.00;;;2.80;;
59514;SDS011;46082;43.034;-0.072;2022-08-01T15:07:14;3.10;;;2.80;;
59514;SDS011;46082;43.034;-0.072;2022-08-01T15:09:40;5.68;;;3.20;;
59514;SDS011;46082;43.034;-0.072;2022-08-01T15:12:07;2.75;;;2.53;;
59514;SDS011;46082;43.034;-0.072;2022-08-01T15:14:34;3.35;;;2.55;;
59514;SDS011;46082;43.034;-0.072;2022-08-01T15:17:19;3.55;;;2.60;;
59514;SDS011;46082;43.034;-0.072;2022-08-01T15:19:49;4.00;;;3.22;;
59514;SDS011;46082;43.034;-0.072;2022-08-01T15:22:15;2.95;;;2.67;;
59514;SDS011;46082;43.034;-0.072;2022-08-01T15:24:42;2.97;;;2.78;;